PWSweather.com
Personal Weather Stations
Station Observations
PRATO
PratoIT 59100

PratoIT 59100

Lat: 43.8956799, Lon: 11.0845155

Elevation: 164

Station Type: Davis Vantage Vue

http://www.meteoprato.it

High Low Average
Temperature 58.8°F14.9°C 48.7°F9.3°C 53.4°F11.9°C
Dew Point 52.7°F11.5°C 46.8°F8.2°C 50.1°F10.1°C
Winds 9.3 mph 15.0 kmh Calm Calm 1.0 mph SE1.6 kmh SE
Wind Gusts 20.0 mph32.2 kmh -- 4.0 mph6.4 kmh
Humidity 95% 78% 89%
Pressure 29.70 in1005.8 mb 29.52 in999.7 mb -
Precipitation 1.22 in31.0 mm - -
Hour Temp Dew Point Humidity Winds Wind Gusts Pressure Precip Precip Rate Daily Precip Total
12:00 AM 55.7°F13.2°C 50.3°F10.2°C 82% Calm Calm 2.0 mph3.2 kmh 29.63 in1003.4 mb 0.00 in0.0 mm 0.00 in0.0 mm 0.00 in0.0 mm
12:05 AM 55.8°F13.2°C 50.4°F10.2°C 82% 0.1 mph SW0.2 kmh SW 3.0 mph4.8 kmh 29.63 in1003.4 mb 0.00 in0.0 mm 0.00 in0.0 mm 0.00 in0.0 mm
12:10 AM 56.1°F13.4°C 50.7°F10.4°C 82% 0.6 mph SW1.0 kmh SW 3.0 mph4.8 kmh 29.63 in1003.4 mb 0.00 in0.0 mm 0.00 in0.0 mm 0.00 in0.0 mm
12:15 AM 56.2°F13.4°C 50.4°F10.2°C 81% 0.6 mph WSW1.0 kmh WSW 3.0 mph4.8 kmh 29.62 in1003.0 mb 0.00 in0.0 mm 0.00 in0.0 mm 0.00 in0.0 mm
12:20 AM 56.3°F13.5°C 50.5°F10.3°C 81% 0.1 mph 0.2 kmh -- 29.62 in1003.0 mb 0.00 in0.0 mm 0.00 in0.0 mm 0.00 in0.0 mm
12:25 AM 56.5°F13.6°C 50.7°F10.4°C 81% Calm Calm 4.0 mph6.4 kmh 29.62 in1003.0 mb 0.00 in0.0 mm 0.00 in0.0 mm 0.00 in0.0 mm
12:30 AM 56.8°F13.8°C 50.7°F10.4°C 80% Calm Calm 8.0 mph12.9 kmh 29.61 in1002.7 mb 0.00 in0.0 mm 0.00 in0.0 mm 0.00 in0.0 mm
12:35 AM 57.0°F13.9°C 50.9°F10.5°C 80% 0.5 mph SW0.8 kmh SW 8.0 mph12.9 kmh 29.62 in1003.0 mb 0.00 in0.0 mm 0.00 in0.0 mm 0.00 in0.0 mm
12:40 AM 57.1°F13.9°C 50.6°F10.3°C 79% 1.1 mph SW1.8 kmh SW 7.0 mph11.3 kmh 29.61 in1002.7 mb 0.00 in0.0 mm 0.00 in0.0 mm 0.00 in0.0 mm
12:45 AM 57.0°F13.9°C 50.5°F10.3°C 79% 1.1 mph SW1.8 kmh SW 7.0 mph11.3 kmh 29.61 in1002.7 mb 0.00 in0.0 mm 0.00 in0.0 mm 0.00 in0.0 mm
12:50 AM 57.0°F13.9°C 50.9°F10.5°C 80% 0.6 mph SW1.0 kmh SW 3.0 mph4.8 kmh 29.60 in1002.4 mb 0.00 in0.0 mm 0.00 in0.0 mm 0.00 in0.0 mm
12:55 AM 57.0°F13.9°C 50.9°F10.5°C 80% 0.3 mph SW0.5 kmh SW 6.0 mph9.7 kmh 29.60 in1002.4 mb 0.00 in0.0 mm 0.00 in0.0 mm 0.00 in0.0 mm
01:00 AM 57.1°F13.9°C 50.6°F10.3°C 79% 0.7 mph SW1.1 kmh SW 6.0 mph9.7 kmh 29.59 in1002.0 mb 0.00 in0.0 mm 0.00 in0.0 mm 0.00 in0.0 mm
01:05 AM 57.1°F13.9°C 50.6°F10.3°C 79% 0.7 mph NNE1.1 kmh NNE 3.0 mph4.8 kmh 29.59 in1002.0 mb 0.00 in0.0 mm 0.00 in0.0 mm 0.00 in0.0 mm
01:10 AM 57.1°F13.9°C 50.6°F10.3°C 79% 0.2 mph SW0.3 kmh SW 6.0 mph9.7 kmh 29.60 in1002.4 mb 0.00 in0.0 mm 0.00 in0.0 mm 0.00 in0.0 mm
01:15 AM 57.1°F13.9°C 50.6°F10.3°C 79% 0.6 mph SW1.0 kmh SW 8.0 mph12.9 kmh 29.60 in1002.4 mb 0.00 in0.0 mm 0.00 in0.0 mm 0.00 in0.0 mm
01:20 AM 57.0°F13.9°C 50.9°F10.5°C 80% 1.6 mph SW2.6 kmh SW 8.0 mph12.9 kmh 29.60 in1002.4 mb 0.00 in0.0 mm 0.00 in0.0 mm 0.00 in0.0 mm
01:25 AM 56.8°F13.8°C 50.7°F10.4°C 80% 2.0 mph WSW3.2 kmh WSW 8.0 mph12.9 kmh 29.60 in1002.4 mb 0.00 in0.0 mm 0.00 in0.0 mm 0.00 in0.0 mm
01:30 AM 56.5°F13.6°C 50.4°F10.2°C 80% 1.5 mph WSW2.4 kmh WSW 3.0 mph4.8 kmh 29.60 in1002.4 mb 0.00 in0.0 mm 0.00 in0.0 mm 0.00 in0.0 mm
01:35 AM 56.4°F13.6°C 50.6°F10.3°C 81% 0.5 mph 0.8 kmh -- 29.60 in1002.4 mb 0.00 in0.0 mm 0.00 in0.0 mm 0.00 in0.0 mm
01:40 AM 56.3°F13.5°C 50.5°F10.3°C 81% Calm Calm -- 29.61 in1002.7 mb 0.00 in0.0 mm 0.00 in0.0 mm 0.00 in0.0 mm
01:45 AM 56.3°F13.5°C 50.9°F10.5°C 82% Calm Calm 9.0 mph14.5 kmh 29.61 in1002.7 mb 0.00 in0.0 mm 0.00 in0.0 mm 0.00 in0.0 mm
01:50 AM 56.7°F13.7°C 50.9°F10.5°C 81% 0.4 mph SW0.6 kmh SW 9.0 mph14.5 kmh 29.60 in1002.4 mb 0.00 in0.0 mm 0.00 in0.0 mm 0.00 in0.0 mm
01:55 AM 57.0°F13.9°C 51.2°F10.7°C 81% 1.1 mph SW1.8 kmh SW 5.0 mph8.0 kmh 29.60 in1002.4 mb 0.00 in0.0 mm 0.00 in0.0 mm 0.00 in0.0 mm
02:00 AM 57.2°F14.0°C 51.1°F10.6°C 80% 1.5 mph SW2.4 kmh SW 7.0 mph11.3 kmh 29.60 in1002.4 mb 0.00 in0.0 mm 0.00 in0.0 mm 0.00 in0.0 mm
02:05 AM 57.3°F14.1°C 51.2°F10.7°C 80% 1.3 mph SW2.1 kmh SW 7.0 mph11.3 kmh 29.60 in1002.4 mb 0.00 in0.0 mm 0.00 in0.0 mm 0.00 in0.0 mm
02:10 AM 57.5°F14.2°C 51.4°F10.8°C 80% 1.0 mph SW1.6 kmh SW 6.0 mph9.7 kmh 29.60 in1002.4 mb 0.00 in0.0 mm 0.00 in0.0 mm 0.00 in0.0 mm
02:15 AM 57.5°F14.2°C 51.4°F10.8°C 80% 1.3 mph SW2.1 kmh SW 6.0 mph9.7 kmh 29.60 in1002.4 mb 0.00 in0.0 mm 0.00 in0.0 mm 0.00 in0.0 mm
02:20 AM 57.5°F14.2°C 51.4°F10.8°C 80% 1.3 mph SSW2.1 kmh SSW 6.0 mph9.7 kmh 29.60 in1002.4 mb 0.00 in0.0 mm 0.00 in0.0 mm 0.00 in0.0 mm
02:25 AM 57.5°F14.2°C 51.4°F10.8°C 80% 1.0 mph SW1.6 kmh SW 6.0 mph9.7 kmh 29.60 in1002.4 mb 0.00 in0.0 mm 0.00 in0.0 mm 0.00 in0.0 mm
02:30 AM 57.5°F14.2°C 51.4°F10.8°C 80% 1.0 mph SW1.6 kmh SW 7.0 mph11.3 kmh 29.60 in1002.4 mb 0.00 in0.0 mm 0.00 in0.0 mm 0.00 in0.0 mm
02:35 AM 57.6°F14.2°C 51.5°F10.8°C 80% 1.2 mph SW1.9 kmh SW 7.0 mph11.3 kmh 29.60 in1002.4 mb 0.00 in0.0 mm 0.00 in0.0 mm 0.00 in0.0 mm
02:40 AM 57.6°F14.2°C 51.5°F10.8°C 80% 1.4 mph SW2.3 kmh SW 7.0 mph11.3 kmh 29.60 in1002.4 mb 0.00 in0.0 mm 0.00 in0.0 mm 0.00 in0.0 mm
02:45 AM 57.3°F14.1°C 51.2°F10.7°C 80% 1.2 mph SW1.9 kmh SW 5.0 mph8.0 kmh 29.59 in1002.0 mb 0.00 in0.0 mm 0.00 in0.0 mm 0.00 in0.0 mm
02:50 AM 56.8°F13.8°C 51.0°F10.6°C 81% 1.3 mph WSW2.1 kmh WSW 5.0 mph8.0 kmh 29.59 in1002.0 mb 0.00 in0.0 mm 0.00 in0.0 mm 0.00 in0.0 mm
02:55 AM 56.4°F13.6°C 51.0°F10.6°C 82% 1.8 mph WSW2.9 kmh WSW 5.0 mph8.0 kmh 29.59 in1002.0 mb 0.00 in0.0 mm 0.00 in0.0 mm 0.00 in0.0 mm
03:00 AM 56.3°F13.5°C 51.2°F10.7°C 83% 1.6 mph WSW2.6 kmh WSW 5.0 mph8.0 kmh 29.58 in1001.7 mb 0.00 in0.0 mm 0.00 in0.0 mm 0.00 in0.0 mm
03:05 AM 56.6°F13.7°C 51.5°F10.8°C 83% 1.1 mph SW1.8 kmh SW 9.0 mph14.5 kmh 29.59 in1002.0 mb 0.00 in0.0 mm 0.00 in0.0 mm 0.00 in0.0 mm
03:10 AM 57.1°F13.9°C 51.7°F10.9°C 82% 1.3 mph SW2.1 kmh SW 9.0 mph14.5 kmh 29.58 in1001.7 mb 0.00 in0.0 mm 0.00 in0.0 mm 0.00 in0.0 mm
03:15 AM 57.4°F14.1°C 51.6°F10.9°C 81% 1.7 mph SW2.7 kmh SW 5.0 mph8.0 kmh 29.58 in1001.7 mb 0.00 in0.0 mm 0.00 in0.0 mm 0.00 in0.0 mm
03:20 AM 57.6°F14.2°C 51.5°F10.8°C 80% 1.2 mph SW1.9 kmh SW 6.0 mph9.7 kmh 29.57 in1001.4 mb 0.00 in0.0 mm 0.00 in0.0 mm 0.00 in0.0 mm
03:25 AM 57.7°F14.3°C 51.6°F10.9°C 80% 0.8 mph WSW1.3 kmh WSW 6.0 mph9.7 kmh 29.57 in1001.4 mb 0.00 in0.0 mm 0.00 in0.0 mm 0.00 in0.0 mm
03:30 AM 57.9°F14.4°C 51.8°F11.0°C 80% 1.0 mph SW1.6 kmh SW 4.0 mph6.4 kmh 29.58 in1001.7 mb 0.00 in0.0 mm 0.00 in0.0 mm 0.00 in0.0 mm
03:35 AM 58.0°F14.4°C 51.5°F10.8°C 79% 1.0 mph SW1.6 kmh SW 5.0 mph8.0 kmh 29.57 in1001.4 mb 0.00 in0.0 mm 0.00 in0.0 mm 0.00 in0.0 mm
03:40 AM 58.1°F14.5°C 51.6°F10.9°C 79% 1.0 mph NNW1.6 kmh NNW 5.0 mph8.0 kmh 29.57 in1001.4 mb 0.00 in0.0 mm 0.00 in0.0 mm 0.00 in0.0 mm
03:45 AM 58.2°F14.6°C 51.7°F10.9°C 79% 1.0 mph N1.6 kmh N 6.0 mph9.7 kmh 29.57 in1001.4 mb 0.00 in0.0 mm 0.00 in0.0 mm 0.00 in0.0 mm
03:50 AM 58.4°F14.7°C 51.6°F10.9°C 78% 1.0 mph NW1.6 kmh NW 7.0 mph11.3 kmh 29.58 in1001.7 mb 0.00 in0.0 mm 0.00 in0.0 mm 0.00 in0.0 mm
03:55 AM 58.4°F14.7°C 51.6°F10.9°C 78% 1.0 mph SW1.6 kmh SW 7.0 mph11.3 kmh 29.57 in1001.4 mb 0.00 in0.0 mm 0.00 in0.0 mm 0.00 in0.0 mm
04:00 AM 58.4°F14.7°C 51.6°F10.9°C 78% 1.0 mph SW1.6 kmh SW 9.0 mph14.5 kmh 29.57 in1001.4 mb 0.00 in0.0 mm 0.00 in0.0 mm 0.00 in0.0 mm
04:05 AM 58.5°F14.7°C 51.7°F10.9°C 78% 1.0 mph SW1.6 kmh SW 9.0 mph14.5 kmh 29.56 in1001.0 mb 0.00 in0.0 mm 0.00 in0.0 mm 0.00 in0.0 mm
04:10 AM 58.6°F14.8°C 51.8°F11.0°C 78% 1.1 mph NE1.8 kmh NE 6.0 mph9.7 kmh 29.56 in1001.0 mb 0.00 in0.0 mm 0.00 in0.0 mm 0.00 in0.0 mm
04:15 AM 58.6°F14.8°C 51.8°F11.0°C 78% 1.3 mph NE2.1 kmh NE 6.0 mph9.7 kmh 29.56 in1001.0 mb 0.00 in0.0 mm 0.00 in0.0 mm 0.00 in0.0 mm
04:20 AM 58.8°F14.9°C 52.0°F11.1°C 78% 1.7 mph NNE2.7 kmh NNE 10.0 mph16.1 kmh 29.55 in1000.7 mb 0.00 in0.0 mm 0.00 in0.0 mm 0.00 in0.0 mm
04:25 AM 58.7°F14.8°C 51.9°F11.1°C 78% 2.0 mph N3.2 kmh N 10.0 mph16.1 kmh 29.55 in1000.7 mb 0.00 in0.0 mm 0.00 in0.0 mm 0.00 in0.0 mm
04:30 AM 58.5°F14.7°C 52.0°F11.1°C 79% 2.0 mph N3.2 kmh N 6.0 mph9.7 kmh 29.55 in1000.7 mb 0.00 in0.0 mm 0.00 in0.0 mm 0.00 in0.0 mm
04:35 AM 58.3°F14.6°C 51.8°F11.0°C 79% 2.0 mph NNE3.2 kmh NNE 8.0 mph12.9 kmh 29.56 in1001.0 mb 0.00 in0.0 mm 0.00 in0.0 mm 0.00 in0.0 mm
04:40 AM 58.1°F14.5°C 52.0°F11.1°C 80% 1.9 mph NNW3.1 kmh NNW 8.0 mph12.9 kmh 29.56 in1001.0 mb 0.01 in0.3 mm 0.12 in3.0 mm 0.01 in0.3 mm
04:45 AM 57.9°F14.4°C 52.1°F11.2°C 81% 1.4 mph SW2.3 kmh SW 4.0 mph6.4 kmh 29.56 in1001.0 mb 0.02 in0.5 mm 0.12 in3.0 mm 0.02 in0.5 mm
04:50 AM 57.5°F14.2°C 52.0°F11.1°C 82% 1.0 mph SSW1.6 kmh SSW 4.0 mph6.4 kmh 29.56 in1001.0 mb 0.02 in0.5 mm 0.00 in0.0 mm 0.02 in0.5 mm
04:55 AM 57.2°F14.0°C 52.1°F11.2°C 83% 1.0 mph WSW1.6 kmh WSW 6.0 mph9.7 kmh 29.55 in1000.7 mb 0.04 in1.0 mm 0.24 in6.1 mm 0.04 in1.0 mm
05:00 AM 57.0°F13.9°C 52.2°F11.2°C 84% 1.0 mph SW1.6 kmh SW 7.0 mph11.3 kmh 29.56 in1001.0 mb 0.06 in1.5 mm 0.02 in0.5 mm 0.06 in1.5 mm
05:05 AM 56.7°F13.7°C 52.2°F11.2°C 85% 1.5 mph SW2.4 kmh SW 7.0 mph11.3 kmh 29.57 in1001.4 mb 0.06 in1.5 mm 0.00 in0.0 mm 0.06 in1.5 mm
05:10 AM 56.4°F13.6°C 52.3°F11.3°C 86% 2.3 mph WSW3.7 kmh WSW 7.0 mph11.3 kmh 29.57 in1001.4 mb 0.08 in2.0 mm 0.24 in6.1 mm 0.08 in2.0 mm
05:15 AM 56.1°F13.4°C 52.3°F11.3°C 87% 2.8 mph SW4.5 kmh SW 9.0 mph14.5 kmh 29.57 in1001.4 mb 0.10 in2.5 mm 0.24 in6.1 mm 0.10 in2.5 mm
05:20 AM 55.9°F13.3°C 52.4°F11.3°C 88% 3.4 mph SW5.5 kmh SW 9.0 mph14.5 kmh 29.57 in1001.4 mb 0.12 in3.0 mm 0.24 in6.1 mm 0.12 in3.0 mm
05:25 AM 55.7°F13.2°C 52.2°F11.2°C 88% 3.3 mph SW5.3 kmh SW 8.0 mph12.9 kmh 29.57 in1001.4 mb 0.15 in3.8 mm 0.36 in9.1 mm 0.15 in3.8 mm
05:30 AM 55.5°F13.1°C 52.3°F11.3°C 89% 2.1 mph SW3.4 kmh SW 4.0 mph6.4 kmh 29.57 in1001.4 mb 0.17 in4.3 mm 0.24 in6.1 mm 0.17 in4.3 mm
05:35 AM 55.4°F13.0°C 52.2°F11.2°C 89% 0.9 mph SSW1.4 kmh SSW 6.0 mph9.7 kmh 29.57 in1001.4 mb 0.19 in4.8 mm 0.24 in6.1 mm 0.19 in4.8 mm
05:40 AM 55.3°F12.9°C 52.4°F11.3°C 90% 0.6 mph SW1.0 kmh SW 6.0 mph9.7 kmh 29.57 in1001.4 mb 0.20 in5.1 mm 0.12 in3.0 mm 0.20 in5.1 mm
05:45 AM 55.3°F12.9°C 52.4°F11.3°C 90% 0.5 mph SW0.8 kmh SW 5.0 mph8.0 kmh 29.57 in1001.4 mb 0.20 in5.1 mm 0.00 in0.0 mm 0.21 in5.3 mm
05:50 AM 55.3°F12.9°C 52.4°F11.3°C 90% 0.1 mph SSW0.2 kmh SSW 1.0 mph1.6 kmh 29.56 in1001.0 mb 0.20 in5.1 mm 0.00 in0.0 mm 0.22 in5.6 mm
05:55 AM 55.2°F12.9°C 52.3°F11.3°C 90% Calm Calm -- 29.56 in1001.0 mb 0.19 in4.8 mm 0.00 in0.0 mm 0.23 in5.8 mm
06:00 AM 55.1°F12.8°C 52.5°F11.4°C 91% Calm Calm 2.0 mph3.2 kmh 29.56 in1001.0 mb 0.18 in4.6 mm 0.00 in0.0 mm 0.24 in6.1 mm
06:05 AM 55.0°F12.8°C 52.4°F11.3°C 91% Calm Calm 2.0 mph3.2 kmh 29.56 in1001.0 mb 0.18 in4.6 mm 0.00 in0.0 mm 0.24 in6.1 mm
06:10 AM 54.9°F12.7°C 52.3°F11.3°C 91% Calm Calm -- 29.56 in1001.0 mb 0.17 in4.3 mm 0.00 in0.0 mm 0.24 in6.1 mm
06:15 AM 54.9°F12.7°C 52.3°F11.3°C 91% Calm Calm 1.0 mph1.6 kmh 29.55 in1000.7 mb 0.15 in3.8 mm 0.00 in0.0 mm 0.25 in6.4 mm
06:20 AM 55.0°F12.8°C 52.4°F11.3°C 91% Calm Calm 2.0 mph3.2 kmh 29.56 in1001.0 mb 0.13 in3.3 mm 0.00 in0.0 mm 0.25 in6.4 mm
06:25 AM 55.1°F12.8°C 52.5°F11.4°C 91% Calm Calm 5.0 mph8.0 kmh 29.56 in1001.0 mb 0.11 in2.8 mm 0.00 in0.0 mm 0.26 in6.6 mm
06:30 AM 55.2°F12.9°C 52.6°F11.4°C 91% 0.3 mph NNE0.5 kmh NNE 5.0 mph8.0 kmh 29.56 in1001.0 mb 0.09 in2.3 mm 0.00 in0.0 mm 0.27 in6.9 mm
06:35 AM 55.3°F12.9°C 52.7°F11.5°C 91% 0.8 mph NNE1.3 kmh NNE 6.0 mph9.7 kmh 29.56 in1001.0 mb 0.08 in2.0 mm 0.00 in0.0 mm 0.28 in7.1 mm
06:40 AM 55.4°F13.0°C 52.5°F11.4°C 90% 1.3 mph NNW2.1 kmh NNW 8.0 mph12.9 kmh 29.56 in1001.0 mb 0.08 in2.0 mm 0.00 in0.0 mm 0.28 in7.1 mm
06:45 AM 55.5°F13.1°C 52.6°F11.4°C 90% 1.8 mph WSW2.9 kmh WSW 8.0 mph12.9 kmh 29.56 in1001.0 mb 0.09 in2.3 mm 0.12 in3.0 mm 0.30 in7.6 mm
06:50 AM 55.5°F13.1°C 52.6°F11.4°C 90% 1.5 mph N2.4 kmh N 7.0 mph11.3 kmh 29.56 in1001.0 mb 0.09 in2.3 mm 0.00 in0.0 mm 0.31 in7.9 mm
06:55 AM 55.6°F13.1°C 52.4°F11.3°C 89% 1.0 mph NE1.6 kmh NE 7.0 mph11.3 kmh 29.55 in1000.7 mb 0.07 in1.8 mm 0.00 in0.0 mm 0.31 in7.9 mm
07:00 AM 55.7°F13.2°C 52.5°F11.4°C 89% 1.0 mph NNW1.6 kmh NNW 10.0 mph16.1 kmh 29.55 in1000.7 mb 0.07 in1.8 mm 0.00 in0.0 mm 0.31 in7.9 mm
07:05 AM 55.8°F13.2°C 52.3°F11.3°C 88% 1.2 mph N1.9 kmh N 10.0 mph16.1 kmh 29.55 in1000.7 mb 0.07 in1.8 mm 0.00 in0.0 mm 0.31 in7.9 mm
07:10 AM 55.8°F13.2°C 52.0°F11.1°C 87% 1.9 mph S3.1 kmh S 10.0 mph16.1 kmh 29.55 in1000.7 mb 0.09 in2.3 mm 0.24 in6.1 mm 0.33 in8.4 mm
07:15 AM 55.8°F13.2°C 52.0°F11.1°C 87% 2.4 mph S3.9 kmh S 10.0 mph16.1 kmh 29.55 in1000.7 mb 0.08 in2.0 mm 0.00 in0.0 mm 0.33 in8.4 mm
07:20 AM 55.8°F13.2°C 52.0°F11.1°C 87% 2.2 mph NE3.5 kmh NE 6.0 mph9.7 kmh 29.55 in1000.7 mb 0.08 in2.0 mm 0.00 in0.0 mm 0.33 in8.4 mm
07:25 AM 55.7°F13.2°C 51.6°F10.9°C 86% 2.0 mph W3.2 kmh W 6.0 mph9.7 kmh 29.55 in1000.7 mb 0.08 in2.0 mm 0.00 in0.0 mm 0.34 in8.6 mm
07:30 AM 55.7°F13.2°C 51.6°F10.9°C 86% 2.0 mph SW3.2 kmh SW 6.0 mph9.7 kmh 29.56 in1001.0 mb 0.07 in1.8 mm 0.00 in0.0 mm 0.34 in8.6 mm
07:35 AM 55.7°F13.2°C 51.6°F10.9°C 86% 2.0 mph SW3.2 kmh SW 6.0 mph9.7 kmh 29.56 in1001.0 mb 0.06 in1.5 mm 0.00 in0.0 mm 0.34 in8.6 mm
07:40 AM 55.6°F13.1°C 51.5°F10.8°C 86% 2.0 mph SSW3.2 kmh SSW 6.0 mph9.7 kmh 29.57 in1001.4 mb 0.06 in1.5 mm 0.00 in0.0 mm 0.35 in8.9 mm
07:45 AM 55.5°F13.1°C 51.4°F10.8°C 86% 1.8 mph SW2.9 kmh SW 6.0 mph9.7 kmh 29.57 in1001.4 mb 0.05 in1.3 mm 0.00 in0.0 mm 0.35 in8.9 mm
07:50 AM 55.5°F13.1°C 51.1°F10.6°C 85% 1.3 mph SW2.1 kmh SW 5.0 mph8.0 kmh 29.56 in1001.0 mb 0.04 in1.0 mm 0.00 in0.0 mm 0.35 in8.9 mm
07:55 AM 55.3°F12.9°C 50.9°F10.5°C 85% 0.6 mph N1.0 kmh N 3.0 mph4.8 kmh 29.57 in1001.4 mb 0.05 in1.3 mm 0.12 in3.0 mm 0.35 in8.9 mm
08:00 AM 55.3°F12.9°C 50.9°F10.5°C 85% 0.1 mph 0.2 kmh -- 29.57 in1001.4 mb 0.05 in1.3 mm 0.00 in0.0 mm 0.35 in8.9 mm
08:05 AM 55.2°F12.9°C 50.8°F10.4°C 85% Calm Calm -- 29.58 in1001.7 mb 0.03 in0.8 mm 0.00 in0.0 mm 0.35 in8.9 mm
08:10 AM 55.2°F12.9°C 51.1°F10.6°C 86% Calm Calm -- 29.58 in1001.7 mb 0.02 in0.5 mm 0.00 in0.0 mm 0.35 in8.9 mm
08:15 AM 55.1°F12.8°C 51.0°F10.6°C 86% Calm Calm -- 29.59 in1002.0 mb 0.02 in0.5 mm 0.00 in0.0 mm 0.35 in8.9 mm
08:20 AM 55.0°F12.8°C 50.9°F10.5°C 86% Calm Calm -- 29.58 in1001.7 mb 0.02 in0.5 mm 0.00 in0.0 mm 0.35 in8.9 mm
08:25 AM 55.0°F12.8°C 50.9°F10.5°C 86% Calm Calm -- 29.59 in1002.0 mb 0.02 in0.5 mm 0.00 in0.0 mm 0.35 in8.9 mm
08:30 AM 54.9°F12.7°C 50.8°F10.4°C 86% Calm Calm -- 29.59 in1002.0 mb 0.02 in0.5 mm 0.00 in0.0 mm 0.35 in8.9 mm
08:35 AM 54.9°F12.7°C 50.8°F10.4°C 86% Calm Calm -- 29.59 in1002.0 mb 0.01 in0.3 mm 0.00 in0.0 mm 0.35 in8.9 mm
08:40 AM 54.8°F12.7°C 50.7°F10.4°C 86% Calm Calm -- 29.59 in1002.0 mb 0.01 in0.3 mm 0.00 in0.0 mm 0.35 in8.9 mm
08:45 AM 54.7°F12.6°C 50.6°F10.3°C 86% Calm Calm -- 29.59 in1002.0 mb 0.01 in0.3 mm 0.00 in0.0 mm 0.35 in8.9 mm
08:50 AM 54.7°F12.6°C 50.6°F10.3°C 86% Calm Calm -- 29.59 in1002.0 mb 0.01 in0.3 mm 0.00 in0.0 mm 0.35 in8.9 mm
08:55 AM 54.7°F12.6°C 50.6°F10.3°C 86% Calm Calm -- 29.60 in1002.4 mb 0.00 in0.0 mm 0.00 in0.0 mm 0.35 in8.9 mm
09:00 AM 54.7°F12.6°C 50.6°F10.3°C 86% Calm Calm -- 29.59 in1002.0 mb 0.00 in0.0 mm 0.00 in0.0 mm 0.35 in8.9 mm
09:05 AM 54.7°F12.6°C 50.6°F10.3°C 86% Calm Calm -- 29.59 in1002.0 mb 0.00 in0.0 mm 0.00 in0.0 mm 0.35 in8.9 mm
09:10 AM 54.6°F12.6°C 50.8°F10.4°C 87% Calm Calm -- 29.59 in1002.0 mb 0.00 in0.0 mm 0.00 in0.0 mm 0.35 in8.9 mm
09:15 AM 54.6°F12.6°C 50.8°F10.4°C 87% Calm Calm -- 29.59 in1002.0 mb 0.00 in0.0 mm 0.00 in0.0 mm 0.35 in8.9 mm
09:20 AM 54.3°F12.4°C 50.8°F10.4°C 88% 0.2 mph NE0.3 kmh NE 4.0 mph6.4 kmh 29.59 in1002.0 mb 0.02 in0.5 mm 0.24 in6.1 mm 0.37 in9.4 mm
09:25 AM 54.1°F12.3°C 50.9°F10.5°C 89% 0.7 mph NE1.1 kmh NE 4.0 mph6.4 kmh 29.59 in1002.0 mb 0.02 in0.5 mm 0.00 in0.0 mm 0.38 in9.7 mm
09:30 AM 54.0°F12.2°C 51.1°F10.6°C 90% 1.0 mph NNE1.6 kmh NNE 3.0 mph4.8 kmh 29.60 in1002.4 mb 0.03 in0.8 mm 0.12 in3.0 mm 0.39 in9.9 mm
09:35 AM 53.9°F12.2°C 51.0°F10.6°C 90% 0.6 mph WSW1.0 kmh WSW 4.0 mph6.4 kmh 29.61 in1002.7 mb 0.05 in1.3 mm 0.24 in6.1 mm 0.40 in10.2 mm
09:40 AM 53.7°F12.1°C 50.8°F10.4°C 90% 0.1 mph WSW0.2 kmh WSW 4.0 mph6.4 kmh 29.61 in1002.7 mb 0.06 in1.5 mm 0.12 in3.0 mm 0.41 in10.4 mm
09:45 AM 53.4°F11.9°C 50.5°F10.3°C 90% 0.3 mph WSW0.5 kmh WSW 9.0 mph14.5 kmh 29.60 in1002.4 mb 0.06 in1.5 mm 0.00 in0.0 mm 0.42 in10.7 mm
09:50 AM 53.3°F11.8°C 50.4°F10.2°C 90% 1.3 mph WSW2.1 kmh WSW 9.0 mph14.5 kmh 29.61 in1002.7 mb 0.06 in1.5 mm 0.00 in0.0 mm 0.42 in10.7 mm
09:55 AM 53.3°F11.8°C 50.4°F10.2°C 90% 1.6 mph SW2.6 kmh SW 3.0 mph4.8 kmh 29.61 in1002.7 mb 0.06 in1.5 mm 0.00 in0.0 mm 0.42 in10.7 mm
10:00 AM 53.2°F11.8°C 50.3°F10.2°C 90% 0.6 mph 1.0 kmh -- 29.61 in1002.7 mb 0.06 in1.5 mm 0.00 in0.0 mm 0.42 in10.7 mm
10:05 AM 53.2°F11.8°C 50.3°F10.2°C 90% Calm Calm 1.0 mph1.6 kmh 29.61 in1002.7 mb 0.06 in1.5 mm 0.00 in0.0 mm 0.42 in10.7 mm
10:10 AM 53.2°F11.8°C 50.3°F10.2°C 90% Calm Calm 1.0 mph1.6 kmh 29.61 in1002.7 mb 0.06 in1.5 mm 0.00 in0.0 mm 0.42 in10.7 mm
10:15 AM 53.2°F11.8°C 50.3°F10.2°C 90% Calm Calm 3.0 mph4.8 kmh 29.61 in1002.7 mb 0.06 in1.5 mm 0.00 in0.0 mm 0.42 in10.7 mm
10:20 AM 53.2°F11.8°C 50.6°F10.3°C 91% Calm Calm 3.0 mph4.8 kmh 29.60 in1002.4 mb 0.05 in1.3 mm 0.00 in0.0 mm 0.42 in10.7 mm
10:25 AM 53.3°F11.8°C 50.7°F10.4°C 91% 0.2 mph NE0.3 kmh NE 4.0 mph6.4 kmh 29.60 in1002.4 mb 0.04 in1.0 mm 0.00 in0.0 mm 0.42 in10.7 mm
10:30 AM 53.4°F11.9°C 50.8°F10.4°C 91% 1.0 mph NE1.6 kmh NE 4.0 mph6.4 kmh 29.59 in1002.0 mb 0.03 in0.8 mm 0.00 in0.0 mm 0.42 in10.7 mm
10:35 AM 53.4°F11.9°C 50.8°F10.4°C 91% 1.9 mph NE3.1 kmh NE 5.0 mph8.0 kmh 29.60 in1002.4 mb 0.02 in0.5 mm 0.00 in0.0 mm 0.42 in10.7 mm
10:40 AM 53.6°F12.0°C 51.0°F10.6°C 91% 2.1 mph NE3.4 kmh NE 5.0 mph8.0 kmh 29.59 in1002.0 mb 0.01 in0.3 mm 0.00 in0.0 mm 0.42 in10.7 mm
10:45 AM 53.8°F12.1°C 51.2°F10.7°C 91% 2.0 mph NE3.2 kmh NE 4.0 mph6.4 kmh 29.59 in1002.0 mb 0.00 in0.0 mm 0.00 in0.0 mm 0.42 in10.7 mm
10:50 AM 54.0°F12.2°C 51.4°F10.8°C 91% 1.5 mph NE2.4 kmh NE 3.0 mph4.8 kmh 29.58 in1001.7 mb 0.00 in0.0 mm 0.00 in0.0 mm 0.42 in10.7 mm
10:55 AM 54.1°F12.3°C 51.2°F10.7°C 90% 0.5 mph NE0.8 kmh NE 2.0 mph3.2 kmh 29.58 in1001.7 mb 0.00 in0.0 mm 0.00 in0.0 mm 0.42 in10.7 mm
11:00 AM 54.4°F12.4°C 51.5°F10.8°C 90% Calm Calm -- 29.57 in1001.4 mb 0.00 in0.0 mm 0.00 in0.0 mm 0.42 in10.7 mm
11:05 AM 54.7°F12.6°C 51.8°F11.0°C 90% Calm Calm -- 29.56 in1001.0 mb 0.00 in0.0 mm 0.00 in0.0 mm 0.42 in10.7 mm
11:10 AM 55.1°F12.8°C 51.9°F11.1°C 89% Calm Calm -- 29.56 in1001.0 mb 0.00 in0.0 mm 0.00 in0.0 mm 0.42 in10.7 mm
11:15 AM 55.5°F13.1°C 52.3°F11.3°C 89% Calm Calm -- 29.56 in1001.0 mb 0.01 in0.3 mm 0.12 in3.0 mm 0.43 in10.9 mm
11:20 AM 55.6°F13.1°C 52.1°F11.2°C 88% Calm Calm 2.0 mph3.2 kmh 29.56 in1001.0 mb 0.01 in0.3 mm 0.00 in0.0 mm 0.43 in10.9 mm
11:25 AM 55.7°F13.2°C 51.6°F10.9°C 86% Calm Calm 4.0 mph6.4 kmh 29.55 in1000.7 mb 0.01 in0.3 mm 0.00 in0.0 mm 0.43 in10.9 mm
11:30 AM 55.8°F13.2°C 51.7°F10.9°C 86% 0.3 mph NE0.5 kmh NE 7.0 mph11.3 kmh 29.56 in1001.0 mb 0.01 in0.3 mm 0.00 in0.0 mm 0.43 in10.9 mm
11:35 AM 55.8°F13.2°C 51.7°F10.9°C 86% 0.8 mph S1.3 kmh S 7.0 mph11.3 kmh 29.57 in1001.4 mb 0.02 in0.5 mm 0.12 in3.0 mm 0.43 in10.9 mm
11:40 AM 55.7°F13.2°C 51.6°F10.9°C 86% 1.0 mph SW1.6 kmh SW 5.0 mph8.0 kmh 29.57 in1001.4 mb 0.03 in0.8 mm 0.12 in3.0 mm 0.45 in11.4 mm
11:45 AM 55.5°F13.1°C 51.4°F10.8°C 86% 1.0 mph SE1.6 kmh SE 5.0 mph8.0 kmh 29.57 in1001.4 mb 0.04 in1.0 mm 0.12 in3.0 mm 0.46 in11.7 mm
11:50 AM 55.2°F12.9°C 51.4°F10.8°C 87% 1.3 mph NE2.1 kmh NE 6.0 mph9.7 kmh 29.57 in1001.4 mb 0.05 in1.3 mm 0.12 in3.0 mm 0.46 in11.7 mm
11:55 AM 55.0°F12.8°C 51.2°F10.7°C 87% 1.8 mph NE2.9 kmh NE 6.0 mph9.7 kmh 29.56 in1001.0 mb 0.06 in1.5 mm 0.12 in3.0 mm 0.47 in11.9 mm
12:00 PM 54.8°F12.7°C 51.0°F10.6°C 87% 2.0 mph NE3.2 kmh NE 8.0 mph12.9 kmh 29.55 in1000.7 mb 0.08 in2.0 mm 0.02 in0.5 mm 0.50 in12.7 mm
12:05 PM 54.8°F12.7°C 51.3°F10.7°C 88% 2.4 mph NE3.9 kmh NE 11.0 mph17.7 kmh 29.55 in1000.7 mb 0.08 in2.0 mm 0.00 in0.0 mm 0.50 in12.7 mm
12:10 PM 54.8°F12.7°C 51.3°F10.7°C 88% 2.8 mph NE4.5 kmh NE 11.0 mph17.7 kmh 29.55 in1000.7 mb 0.08 in2.0 mm 0.00 in0.0 mm 0.50 in12.7 mm
12:15 PM 54.8°F12.7°C 51.3°F10.7°C 88% 2.2 mph S3.5 kmh S 6.0 mph9.7 kmh 29.54 in1000.3 mb 0.07 in1.8 mm 0.00 in0.0 mm 0.50 in12.7 mm
12:20 PM 55.0°F12.8°C 51.2°F10.7°C 87% 1.3 mph SW2.1 kmh SW 8.0 mph12.9 kmh 29.54 in1000.3 mb 0.08 in2.0 mm 0.12 in3.0 mm 0.50 in12.7 mm
12:25 PM 55.1°F12.8°C 51.0°F10.6°C 86% 1.3 mph SSW2.1 kmh SSW 10.0 mph16.1 kmh 29.54 in1000.3 mb 0.09 in2.3 mm 0.12 in3.0 mm 0.51 in13.0 mm
12:30 PM 55.3°F12.9°C 51.2°F10.7°C 86% 2.2 mph SSW3.5 kmh SSW 10.0 mph16.1 kmh 29.53 in1000.0 mb 0.09 in2.3 mm 0.00 in0.0 mm 0.51 in13.0 mm
12:35 PM 55.4°F13.0°C 51.3°F10.7°C 86% 2.6 mph SW4.2 kmh SW 7.0 mph11.3 kmh 29.53 in1000.0 mb 0.09 in2.3 mm 0.00 in0.0 mm 0.52 in13.2 mm
12:40 PM 55.4°F13.0°C 51.0°F10.6°C 85% 1.8 mph SW2.9 kmh SW 7.0 mph11.3 kmh 29.53 in1000.0 mb 0.07 in1.8 mm 0.00 in0.0 mm 0.52 in13.2 mm
12:45 PM 55.4°F13.0°C 51.0°F10.6°C 85% 1.1 mph SW1.8 kmh SW 7.0 mph11.3 kmh 29.52 in999.7 mb 0.07 in1.8 mm 0.00 in0.0 mm 0.53 in13.5 mm
12:50 PM 55.4°F13.0°C 51.3°F10.7°C 86% 0.7 mph WSW1.1 kmh WSW 4.0 mph6.4 kmh 29.52 in999.7 mb 0.07 in1.8 mm 0.00 in0.0 mm 0.54 in13.7 mm
12:55 PM 55.2°F12.9°C 51.4°F10.8°C 87% 0.6 mph SW1.0 kmh SW 5.0 mph8.0 kmh 29.54 in1000.3 mb 0.07 in1.8 mm 0.00 in0.0 mm 0.55 in14.0 mm
01:00 PM 55.0°F12.8°C 51.2°F10.7°C 87% 1.3 mph SW2.1 kmh SW 9.0 mph14.5 kmh 29.53 in1000.0 mb 0.08 in2.0 mm 0.01 in0.3 mm 0.57 in14.5 mm
01:05 PM 54.9°F12.7°C 51.4°F10.8°C 88% 1.9 mph SW3.1 kmh SW 9.0 mph14.5 kmh 29.54 in1000.3 mb 0.09 in2.3 mm 0.12 in3.0 mm 0.59 in15.0 mm
01:10 PM 54.8°F12.7°C 51.6°F10.9°C 89% 2.2 mph SW3.5 kmh SW 7.0 mph11.3 kmh 29.54 in1000.3 mb 0.10 in2.5 mm 0.12 in3.0 mm 0.60 in15.2 mm
01:15 PM 54.6°F12.6°C 51.7°F10.9°C 90% 3.0 mph SW4.8 kmh SW 7.0 mph11.3 kmh 29.54 in1000.3 mb 0.11 in2.8 mm 0.12 in3.0 mm 0.61 in15.5 mm
01:20 PM 54.3°F12.4°C 51.7°F10.9°C 91% 3.8 mph WSW6.1 kmh WSW 8.0 mph12.9 kmh 29.54 in1000.3 mb 0.12 in3.0 mm 0.12 in3.0 mm 0.62 in15.7 mm
01:25 PM 54.0°F12.2°C 51.7°F10.9°C 92% 4.0 mph WSW6.4 kmh WSW 8.0 mph12.9 kmh 29.54 in1000.3 mb 0.13 in3.3 mm 0.12 in3.0 mm 0.65 in16.5 mm
01:30 PM 53.9°F12.2°C 51.6°F10.9°C 92% 4.7 mph WSW7.6 kmh WSW 20.0 mph32.2 kmh 29.54 in1000.3 mb 0.17 in4.3 mm 0.48 in12.2 mm 0.69 in17.5 mm
01:35 PM 53.8°F12.1°C 51.5°F10.8°C 92% 5.7 mph WSW9.2 kmh WSW 20.0 mph32.2 kmh 29.54 in1000.3 mb 0.20 in5.1 mm 0.36 in9.1 mm 0.72 in18.3 mm
01:40 PM 53.9°F12.2°C 51.9°F11.1°C 93% 5.2 mph WSW8.4 kmh WSW 7.0 mph11.3 kmh 29.54 in1000.3 mb 0.24 in6.1 mm 0.48 in12.2 mm 0.76 in19.3 mm
01:45 PM 53.9°F12.2°C 51.9°F11.1°C 93% 3.5 mph WSW5.6 kmh WSW 5.0 mph8.0 kmh 29.56 in1001.0 mb 0.24 in6.1 mm 0.00 in0.0 mm 0.78 in19.8 mm
01:50 PM 53.7°F12.1°C 51.7°F10.9°C 93% 2.4 mph SW3.9 kmh SW 7.0 mph11.3 kmh 29.56 in1001.0 mb 0.26 in6.6 mm 0.24 in6.1 mm 0.80 in20.3 mm
01:55 PM 53.7°F12.1°C 51.7°F10.9°C 93% 2.2 mph SW3.5 kmh SW 7.0 mph11.3 kmh 29.55 in1000.7 mb 0.28 in7.1 mm 0.24 in6.1 mm 0.83 in21.1 mm
02:00 PM 53.4°F11.9°C 51.4°F10.8°C 93% 1.3 mph NNE2.1 kmh NNE 2.0 mph3.2 kmh 29.55 in1000.7 mb 0.26 in6.6 mm 0.00 in0.0 mm 0.84 in21.3 mm
02:05 PM 53.3°F11.8°C 51.3°F10.7°C 93% 0.8 mph NE1.3 kmh NE 3.0 mph4.8 kmh 29.54 in1000.3 mb 0.25 in6.4 mm 0.00 in0.0 mm 0.84 in21.3 mm
02:10 PM 53.3°F11.8°C 51.3°F10.7°C 93% 1.2 mph NE1.9 kmh NE 3.0 mph4.8 kmh 29.54 in1000.3 mb 0.25 in6.4 mm 0.00 in0.0 mm 0.85 in21.6 mm
02:15 PM 53.3°F11.8°C 51.3°F10.7°C 93% 1.2 mph NE1.9 kmh NE 3.0 mph4.8 kmh 29.54 in1000.3 mb 0.24 in6.1 mm 0.00 in0.0 mm 0.85 in21.6 mm
02:20 PM 53.2°F11.8°C 51.2°F10.7°C 93% 1.0 mph NE1.6 kmh NE 3.0 mph4.8 kmh 29.54 in1000.3 mb 0.24 in6.1 mm 0.00 in0.0 mm 0.86 in21.8 mm
02:25 PM 53.2°F11.8°C 51.2°F10.7°C 93% 0.5 mph NE0.8 kmh NE 4.0 mph6.4 kmh 29.54 in1000.3 mb 0.21 in5.3 mm 0.00 in0.0 mm 0.87 in22.1 mm
02:30 PM 53.1°F11.7°C 51.1°F10.6°C 93% 0.5 mph NE0.8 kmh NE 7.0 mph11.3 kmh 29.54 in1000.3 mb 0.18 in4.6 mm 0.00 in0.0 mm 0.87 in22.1 mm
02:35 PM 53.1°F11.7°C 51.1°F10.6°C 93% 1.6 mph NE2.6 kmh NE 7.0 mph11.3 kmh 29.54 in1000.3 mb 0.15 in3.8 mm 0.00 in0.0 mm 0.88 in22.4 mm
02:40 PM 53.1°F11.7°C 51.1°F10.6°C 93% 2.2 mph NE3.5 kmh NE 5.0 mph8.0 kmh 29.54 in1000.3 mb 0.14 in3.6 mm 0.00 in0.0 mm 0.90 in22.9 mm
02:45 PM 53.2°F11.8°C 51.2°F10.7°C 93% 2.0 mph NE3.2 kmh NE 4.0 mph6.4 kmh 29.54 in1000.3 mb 0.12 in3.0 mm 0.00 in0.0 mm 0.90 in22.9 mm
02:50 PM 53.2°F11.8°C 51.2°F10.7°C 93% 1.6 mph NE2.6 kmh NE 3.0 mph4.8 kmh 29.54 in1000.3 mb 0.10 in2.5 mm 0.00 in0.0 mm 0.91 in23.1 mm
02:55 PM 53.2°F11.8°C 51.2°F10.7°C 93% 0.6 mph WSW1.0 kmh WSW 2.0 mph3.2 kmh 29.54 in1000.3 mb 0.08 in2.0 mm 0.00 in0.0 mm 0.91 in23.1 mm
03:00 PM 53.3°F11.8°C 51.6°F10.9°C 94% Calm Calm -- 29.55 in1000.7 mb 0.07 in1.8 mm 0.00 in0.0 mm 0.91 in23.1 mm
03:05 PM 53.3°F11.8°C 51.3°F10.7°C 93% Calm Calm -- 29.54 in1000.3 mb 0.09 in2.3 mm 0.24 in6.1 mm 0.93 in23.6 mm
03:10 PM 53.2°F11.8°C 51.2°F10.7°C 93% 0.1 mph SW0.2 kmh SW 8.0 mph12.9 kmh 29.55 in1000.7 mb 0.09 in2.3 mm 0.00 in0.0 mm 0.94 in23.9 mm
03:15 PM 52.5°F11.4°C 49.9°F9.9°C 91% 1.6 mph WSW2.6 kmh WSW 15.0 mph24.1 kmh 29.56 in1001.0 mb 0.12 in3.0 mm 0.36 in9.1 mm 0.97 in24.6 mm
03:20 PM 51.6°F10.9°C 49.4°F9.7°C 92% 5.3 mph WSW8.5 kmh WSW 15.0 mph24.1 kmh 29.56 in1001.0 mb 0.14 in3.6 mm 0.24 in6.1 mm 1.00 in25.4 mm
03:25 PM 51.1°F10.6°C 49.1°F9.5°C 93% 8.6 mph WSW13.8 kmh WSW 16.0 mph25.7 kmh 29.56 in1001.0 mb 0.17 in4.3 mm 0.36 in9.1 mm 1.03 in26.2 mm
03:30 PM 50.8°F10.4°C 48.8°F9.3°C 93% 9.3 mph WSW15.0 kmh WSW 16.0 mph25.7 kmh 29.56 in1001.0 mb 0.18 in4.6 mm 0.12 in3.0 mm 1.06 in26.9 mm
03:35 PM 50.8°F10.4°C 49.1°F9.5°C 94% 7.0 mph WSW11.3 kmh WSW 10.0 mph16.1 kmh 29.56 in1001.0 mb 0.18 in4.6 mm 0.00 in0.0 mm 1.06 in26.9 mm
03:40 PM 50.7°F10.4°C 49.0°F9.4°C 94% 3.7 mph WSW6.0 kmh WSW 5.0 mph8.0 kmh 29.57 in1001.4 mb 0.17 in4.3 mm 0.00 in0.0 mm 1.07 in27.2 mm
03:45 PM 50.8°F10.4°C 49.1°F9.5°C 94% 1.2 mph WSW1.9 kmh WSW 2.0 mph3.2 kmh 29.58 in1001.7 mb 0.19 in4.8 mm 0.24 in6.1 mm 1.09 in27.7 mm
03:50 PM 50.8°F10.4°C 49.1°F9.5°C 94% 0.1 mph 0.2 kmh -- 29.58 in1001.7 mb 0.20 in5.1 mm 0.12 in3.0 mm 1.10 in27.9 mm
03:55 PM 50.8°F10.4°C 49.1°F9.5°C 94% 0.2 mph NE0.3 kmh NE 5.0 mph8.0 kmh 29.57 in1001.4 mb 0.21 in5.3 mm 0.12 in3.0 mm 1.12 in28.4 mm
04:00 PM 50.8°F10.4°C 49.1°F9.5°C 94% 1.0 mph NE1.6 kmh NE 5.0 mph8.0 kmh 29.57 in1001.4 mb 0.21 in5.3 mm 0.00 in0.0 mm 1.13 in28.7 mm
04:05 PM 50.9°F10.5°C 49.2°F9.6°C 94% 1.5 mph NE2.4 kmh NE 4.0 mph6.4 kmh 29.58 in1001.7 mb 0.21 in5.3 mm 0.00 in0.0 mm 1.14 in29.0 mm
04:10 PM 50.9°F10.5°C 49.2°F9.6°C 94% 1.3 mph NE2.1 kmh NE 7.0 mph11.3 kmh 29.58 in1001.7 mb 0.21 in5.3 mm 0.00 in0.0 mm 1.15 in29.2 mm
04:15 PM 51.0°F10.6°C 49.3°F9.6°C 94% 1.9 mph NE3.1 kmh NE 7.0 mph11.3 kmh 29.58 in1001.7 mb 0.18 in4.6 mm 0.00 in0.0 mm 1.16 in29.5 mm
04:20 PM 51.2°F10.7°C 49.5°F9.7°C 94% 2.7 mph NE4.3 kmh NE 5.0 mph8.0 kmh 29.58 in1001.7 mb 0.16 in4.1 mm 0.00 in0.0 mm 1.16 in29.5 mm
04:25 PM 51.3°F10.7°C 49.6°F9.8°C 94% 2.2 mph NE3.5 kmh NE 5.0 mph8.0 kmh 29.58 in1001.7 mb 0.13 in3.3 mm 0.00 in0.0 mm 1.17 in29.7 mm
04:30 PM 51.3°F10.7°C 49.6°F9.8°C 94% 1.0 mph NNE1.6 kmh NNE 2.0 mph3.2 kmh 29.58 in1001.7 mb 0.11 in2.8 mm 0.00 in0.0 mm 1.17 in29.7 mm
04:35 PM 51.2°F10.7°C 49.5°F9.7°C 94% 0.2 mph SW0.3 kmh SW 3.0 mph4.8 kmh 29.58 in1001.7 mb 0.11 in2.8 mm 0.00 in0.0 mm 1.17 in29.7 mm
04:40 PM 51.2°F10.7°C 49.5°F9.7°C 94% 0.2 mph SW0.3 kmh SW 5.0 mph8.0 kmh 29.59 in1002.0 mb 0.10 in2.5 mm 0.00 in0.0 mm 1.17 in29.7 mm
04:45 PM 51.1°F10.6°C 49.1°F9.5°C 93% 1.2 mph SW1.9 kmh SW 9.0 mph14.5 kmh 29.59 in1002.0 mb 0.09 in2.3 mm 0.00 in0.0 mm 1.17 in29.7 mm
04:50 PM 50.3°F10.2°C 48.1°F8.9°C 92% 3.1 mph SW5.0 kmh SW 10.0 mph16.1 kmh 29.59 in1002.0 mb 0.07 in1.8 mm 0.00 in0.0 mm 1.17 in29.7 mm
04:55 PM 49.7°F9.8°C 47.8°F8.8°C 93% 4.6 mph SW7.4 kmh SW 10.0 mph16.1 kmh 29.59 in1002.0 mb 0.05 in1.3 mm 0.00 in0.0 mm 1.17 in29.7 mm
05:00 PM 49.4°F9.7°C 47.5°F8.6°C 93% 4.3 mph SW6.9 kmh SW 8.0 mph12.9 kmh 29.60 in1002.4 mb 0.04 in1.0 mm 0.00 in0.0 mm 1.17 in29.7 mm
05:05 PM 49.3°F9.6°C 47.4°F8.6°C 93% 3.3 mph SW5.3 kmh SW 9.0 mph14.5 kmh 29.60 in1002.4 mb 0.03 in0.8 mm 0.00 in0.0 mm 1.17 in29.7 mm
05:10 PM 49.1°F9.5°C 47.2°F8.4°C 93% 3.1 mph SSW5.0 kmh SSW 9.0 mph14.5 kmh 29.60 in1002.4 mb 0.02 in0.5 mm 0.00 in0.0 mm 1.17 in29.7 mm
05:15 PM 48.9°F9.4°C 47.0°F8.3°C 93% 3.5 mph SSW5.6 kmh SSW 9.0 mph14.5 kmh 29.61 in1002.7 mb 0.02 in0.5 mm 0.00 in0.0 mm 1.18 in30.0 mm
05:20 PM 48.7°F9.3°C 46.8°F8.2°C 93% 3.9 mph SSW6.3 kmh SSW 9.0 mph14.5 kmh 29.60 in1002.4 mb 0.03 in0.8 mm 0.12 in3.0 mm 1.19 in30.2 mm
05:25 PM 48.7°F9.3°C 47.1°F8.4°C 94% 3.3 mph SSW5.3 kmh SSW 8.0 mph12.9 kmh 29.59 in1002.0 mb 0.03 in0.8 mm 0.00 in0.0 mm 1.20 in30.5 mm
05:30 PM 48.7°F9.3°C 47.1°F8.4°C 94% 2.0 mph SW3.2 kmh SW 5.0 mph8.0 kmh 29.59 in1002.0 mb 0.04 in1.0 mm 0.12 in3.0 mm 1.20 in30.5 mm
05:35 PM 48.7°F9.3°C 47.1°F8.4°C 94% 1.4 mph SW2.3 kmh SW 7.0 mph11.3 kmh 29.59 in1002.0 mb 0.03 in0.8 mm 0.00 in0.0 mm 1.20 in30.5 mm
05:40 PM 48.8°F9.3°C 47.2°F8.4°C 94% 1.5 mph SW2.4 kmh SW 7.0 mph11.3 kmh 29.59 in1002.0 mb 0.04 in1.0 mm 0.12 in3.0 mm 1.21 in30.7 mm
05:45 PM 48.9°F9.4°C 47.2°F8.4°C 94% 0.9 mph W1.4 kmh W 4.0 mph6.4 kmh 29.59 in1002.0 mb 0.04 in1.0 mm 0.00 in0.0 mm 1.21 in30.7 mm
05:50 PM 48.9°F9.4°C 47.2°F8.4°C 94% 0.2 mph SW0.3 kmh SW 7.0 mph11.3 kmh 29.60 in1002.4 mb 0.04 in1.0 mm 0.00 in0.0 mm 1.21 in30.7 mm
05:55 PM 48.7°F9.3°C 47.1°F8.4°C 94% 0.5 mph SW0.8 kmh SW 7.0 mph11.3 kmh 29.59 in1002.0 mb 0.04 in1.0 mm 0.00 in0.0 mm 1.21 in30.7 mm
06:00 PM 48.8°F9.3°C 47.2°F8.4°C 94% 1.2 mph SW1.9 kmh SW 7.0 mph11.3 kmh 29.60 in1002.4 mb 0.04 in1.0 mm 0.00 in0.0 mm 1.21 in30.7 mm
06:05 PM 48.9°F9.4°C 47.2°F8.4°C 94% 1.7 mph SW2.7 kmh SW 7.0 mph11.3 kmh 29.60 in1002.4 mb 0.04 in1.0 mm 0.00 in0.0 mm 1.21 in30.7 mm
06:10 PM 48.9°F9.4°C 47.2°F8.4°C 94% 2.1 mph SW3.4 kmh SW 5.0 mph8.0 kmh 29.61 in1002.7 mb 0.04 in1.0 mm 0.00 in0.0 mm 1.21 in30.7 mm
06:15 PM 48.9°F9.4°C 47.2°F8.4°C 94% 2.1 mph SW3.4 kmh SW 7.0 mph11.3 kmh 29.61 in1002.7 mb 0.03 in0.8 mm 0.00 in0.0 mm 1.21 in30.7 mm
06:20 PM 48.9°F9.4°C 47.2°F8.4°C 94% 2.4 mph SW3.9 kmh SW 7.0 mph11.3 kmh 29.61 in1002.7 mb 0.02 in0.5 mm 0.00 in0.0 mm 1.21 in30.7 mm
06:25 PM 48.8°F9.3°C 47.2°F8.4°C 94% 2.9 mph SW4.7 kmh SW 6.0 mph9.7 kmh 29.61 in1002.7 mb 0.02 in0.5 mm 0.00 in0.0 mm 1.21 in30.7 mm
06:30 PM 48.8°F9.3°C 47.2°F8.4°C 94% 2.9 mph SW4.7 kmh SW 6.0 mph9.7 kmh 29.62 in1003.0 mb 0.01 in0.3 mm 0.00 in0.0 mm 1.21 in30.7 mm
06:35 PM 48.8°F9.3°C 47.2°F8.4°C 94% 2.4 mph SW3.9 kmh SW 6.0 mph9.7 kmh 29.62 in1003.0 mb 0.00 in0.0 mm 0.00 in0.0 mm 1.21 in30.7 mm
06:40 PM 48.9°F9.4°C 47.2°F8.4°C 94% 1.6 mph SW2.6 kmh SW 4.0 mph6.4 kmh 29.62 in1003.0 mb 0.00 in0.0 mm 0.00 in0.0 mm 1.21 in30.7 mm
06:45 PM 48.9°F9.4°C 47.2°F8.4°C 94% 0.7 mph SW1.1 kmh SW 4.0 mph6.4 kmh 29.62 in1003.0 mb 0.00 in0.0 mm 0.00 in0.0 mm 1.21 in30.7 mm
06:50 PM 49.0°F9.4°C 47.3°F8.5°C 94% 0.1 mph SW0.2 kmh SW 3.0 mph4.8 kmh 29.61 in1002.7 mb 0.00 in0.0 mm 0.00 in0.0 mm 1.21 in30.7 mm
06:55 PM 49.0°F9.4°C 47.3°F8.5°C 94% Calm Calm 3.0 mph4.8 kmh 29.62 in1003.0 mb 0.00 in0.0 mm 0.00 in0.0 mm 1.21 in30.7 mm
07:00 PM 49.0°F9.4°C 47.3°F8.5°C 94% Calm Calm 1.0 mph1.6 kmh 29.63 in1003.4 mb 0.00 in0.0 mm 0.00 in0.0 mm 1.21 in30.7 mm
07:05 PM 49.0°F9.4°C 47.3°F8.5°C 94% Calm Calm 1.0 mph1.6 kmh 29.63 in1003.4 mb 0.00 in0.0 mm 0.00 in0.0 mm 1.21 in30.7 mm
07:10 PM 49.0°F9.4°C 47.3°F8.5°C 94% Calm Calm 2.0 mph3.2 kmh 29.63 in1003.4 mb 0.00 in0.0 mm 0.00 in0.0 mm 1.21 in30.7 mm
07:15 PM 49.1°F9.5°C 47.4°F8.6°C 94% Calm Calm 2.0 mph3.2 kmh 29.63 in1003.4 mb 0.00 in0.0 mm 0.00 in0.0 mm 1.21 in30.7 mm
07:20 PM 49.1°F9.5°C 47.4°F8.6°C 94% Calm Calm -- 29.63 in1003.4 mb 0.00 in0.0 mm 0.00 in0.0 mm 1.21 in30.7 mm
07:25 PM 49.2°F9.6°C 47.5°F8.6°C 94% Calm Calm -- 29.63 in1003.4 mb 0.00 in0.0 mm 0.00 in0.0 mm 1.21 in30.7 mm
07:30 PM 49.2°F9.6°C 47.5°F8.6°C 94% Calm Calm -- 29.64 in1003.7 mb 0.00 in0.0 mm 0.00 in0.0 mm 1.21 in30.7 mm
07:35 PM 49.3°F9.6°C 47.6°F8.7°C 94% Calm Calm -- 29.64 in1003.7 mb 0.00 in0.0 mm 0.00 in0.0 mm 1.21 in30.7 mm
07:40 PM 49.3°F9.6°C 47.6°F8.7°C 94% Calm Calm -- 29.64 in1003.7 mb 0.00 in0.0 mm 0.00 in0.0 mm 1.21 in30.7 mm
07:45 PM 49.3°F9.6°C 47.6°F8.7°C 94% Calm Calm -- 29.64 in1003.7 mb 0.00 in0.0 mm 0.00 in0.0 mm 1.21 in30.7 mm
07:50 PM 49.4°F9.7°C 47.7°F8.7°C 94% Calm Calm -- 29.64 in1003.7 mb 0.00 in0.0 mm 0.00 in0.0 mm 1.21 in30.7 mm
07:55 PM 49.4°F9.7°C 47.7°F8.7°C 94% Calm Calm 4.0 mph6.4 kmh 29.65 in1004.1 mb 0.00 in0.0 mm 0.00 in0.0 mm 1.21 in30.7 mm
08:00 PM 49.4°F9.7°C 47.7°F8.7°C 94% Calm Calm 4.0 mph6.4 kmh 29.64 in1003.7 mb 0.00 in0.0 mm 0.00 in0.0 mm 1.21 in30.7 mm
08:05 PM 49.4°F9.7°C 47.7°F8.7°C 94% Calm Calm 2.0 mph3.2 kmh 29.64 in1003.7 mb 0.00 in0.0 mm 0.00 in0.0 mm 1.21 in30.7 mm
08:10 PM 49.4°F9.7°C 47.7°F8.7°C 94% Calm Calm 1.0 mph1.6 kmh 29.65 in1004.1 mb 0.00 in0.0 mm 0.00 in0.0 mm 1.21 in30.7 mm
08:15 PM 49.4°F9.7°C 47.7°F8.7°C 94% Calm Calm 1.0 mph1.6 kmh 29.64 in1003.7 mb 0.00 in0.0 mm 0.00 in0.0 mm 1.21 in30.7 mm
08:20 PM 49.4°F9.7°C 47.7°F8.7°C 94% Calm Calm -- 29.65 in1004.1 mb 0.00 in0.0 mm 0.00 in0.0 mm 1.21 in30.7 mm
08:25 PM 49.3°F9.6°C 47.6°F8.7°C 94% Calm Calm -- 29.65 in1004.1 mb 0.00 in0.0 mm 0.00 in0.0 mm 1.21 in30.7 mm
08:30 PM 49.4°F9.7°C 47.7°F8.7°C 94% Calm Calm -- 29.65 in1004.1 mb 0.00 in0.0 mm 0.00 in0.0 mm 1.21 in30.7 mm
08:35 PM 49.4°F9.7°C 47.7°F8.7°C 94% Calm Calm -- 29.65 in1004.1 mb 0.00 in0.0 mm 0.00 in0.0 mm 1.21 in30.7 mm
08:40 PM 49.4°F9.7°C 47.7°F8.7°C 94% Calm Calm -- 29.65 in1004.1 mb 0.00 in0.0 mm 0.00 in0.0 mm 1.21 in30.7 mm
08:45 PM 49.5°F9.7°C 47.8°F8.8°C 94% Calm Calm -- 29.65 in1004.1 mb 0.00 in0.0 mm 0.00 in0.0 mm 1.21 in30.7 mm
08:50 PM 49.5°F9.7°C 47.8°F8.8°C 94% Calm Calm -- 29.66 in1004.4 mb 0.00 in0.0 mm 0.00 in0.0 mm 1.21 in30.7 mm
08:55 PM 49.5°F9.7°C 47.8°F8.8°C 94% Calm Calm -- 29.66 in1004.4 mb 0.00 in0.0 mm 0.00 in0.0 mm 1.21 in30.7 mm
09:00 PM 49.5°F9.7°C 47.8°F8.8°C 94% Calm Calm -- 29.66 in1004.4 mb 0.00 in0.0 mm 0.00 in0.0 mm 1.21 in30.7 mm
09:05 PM 49.4°F9.7°C 47.7°F8.7°C 94% Calm Calm -- 29.66 in1004.4 mb 0.00 in0.0 mm 0.00 in0.0 mm 1.21 in30.7 mm
09:10 PM 49.4°F9.7°C 47.7°F8.7°C 94% Calm Calm -- 29.66 in1004.4 mb 0.00 in0.0 mm 0.00 in0.0 mm 1.21 in30.7 mm
09:15 PM 49.5°F9.7°C 47.8°F8.8°C 94% Calm Calm -- 29.66 in1004.4 mb 0.00 in0.0 mm 0.00 in0.0 mm 1.21 in30.7 mm
09:20 PM 49.5°F9.7°C 47.8°F8.8°C 94% Calm Calm -- 29.66 in1004.4 mb 0.00 in0.0 mm 0.00 in0.0 mm 1.21 in30.7 mm
09:25 PM 49.6°F9.8°C 47.9°F8.8°C 94% Calm Calm -- 29.66 in1004.4 mb 0.00 in0.0 mm 0.00 in0.0 mm 1.21 in30.7 mm
09:30 PM 49.6°F9.8°C 47.9°F8.8°C 94% Calm Calm -- 29.66 in1004.4 mb 0.01 in0.3 mm 0.12 in3.0 mm 1.22 in31.0 mm
09:35 PM 49.7°F9.8°C 48.0°F8.9°C 94% Calm Calm -- 29.66 in1004.4 mb 0.01 in0.3 mm 0.00 in0.0 mm 1.22 in31.0 mm
09:40 PM 49.6°F9.8°C 47.9°F8.8°C 94% Calm Calm -- 29.66 in1004.4 mb 0.01 in0.3 mm 0.00 in0.0 mm 1.22 in31.0 mm
09:45 PM 49.7°F9.8°C 48.0°F8.9°C 94% Calm Calm -- 29.67 in1004.7 mb 0.01 in0.3 mm 0.00 in0.0 mm 1.22 in31.0 mm
09:50 PM 49.7°F9.8°C 48.0°F8.9°C 94% Calm Calm -- 29.67 in1004.7 mb 0.01 in0.3 mm 0.00 in0.0 mm 1.22 in31.0 mm
09:55 PM 49.7°F9.8°C 48.0°F8.9°C 94% Calm Calm -- 29.67 in1004.7 mb 0.01 in0.3 mm 0.00 in0.0 mm 1.22 in31.0 mm
10:00 PM 49.7°F9.8°C 48.0°F8.9°C 94% 0.2 mph WSW0.3 kmh WSW 4.0 mph6.4 kmh 29.68 in1005.1 mb 0.01 in0.3 mm 0.00 in0.0 mm 1.22 in31.0 mm
10:05 PM 49.6°F9.8°C 47.9°F8.8°C 94% 1.1 mph WSW1.8 kmh WSW 4.0 mph6.4 kmh 29.68 in1005.1 mb 0.01 in0.3 mm 0.00 in0.0 mm 1.22 in31.0 mm
10:10 PM 49.5°F9.7°C 47.8°F8.8°C 94% 1.8 mph WSW2.9 kmh WSW 3.0 mph4.8 kmh 29.68 in1005.1 mb 0.01 in0.3 mm 0.00 in0.0 mm 1.22 in31.0 mm
10:15 PM 49.5°F9.7°C 47.8°F8.8°C 94% 1.4 mph WSW2.3 kmh WSW 3.0 mph4.8 kmh 29.68 in1005.1 mb 0.01 in0.3 mm 0.00 in0.0 mm 1.22 in31.0 mm
10:20 PM 49.3°F9.6°C 47.6°F8.7°C 94% 1.0 mph WSW1.6 kmh WSW 4.0 mph6.4 kmh 29.69 in1005.4 mb 0.01 in0.3 mm 0.00 in0.0 mm 1.22 in31.0 mm
10:25 PM 49.2°F9.6°C 47.5°F8.6°C 94% 1.0 mph WSW1.6 kmh WSW 4.0 mph6.4 kmh 29.69 in1005.4 mb 0.01 in0.3 mm 0.00 in0.0 mm 1.22 in31.0 mm
10:30 PM 49.1°F9.5°C 47.4°F8.6°C 94% 1.0 mph WSW1.6 kmh WSW 4.0 mph6.4 kmh 29.69 in1005.4 mb 0.00 in0.0 mm 0.00 in0.0 mm 1.22 in31.0 mm
10:35 PM 49.2°F9.6°C 47.5°F8.6°C 94% 0.7 mph 1.1 kmh -- 29.69 in1005.4 mb 0.00 in0.0 mm 0.00 in0.0 mm 1.22 in31.0 mm
10:40 PM 49.1°F9.5°C 47.4°F8.6°C 94% 0.2 mph 0.3 kmh -- 29.69 in1005.4 mb 0.00 in0.0 mm 0.00 in0.0 mm 1.22 in31.0 mm
10:45 PM 49.1°F9.5°C 47.4°F8.6°C 94% Calm Calm -- 29.69 in1005.4 mb 0.00 in0.0 mm 0.00 in0.0 mm 1.22 in31.0 mm
10:50 PM 49.1°F9.5°C 47.4°F8.6°C 94% Calm Calm -- 29.69 in1005.4 mb 0.00 in0.0 mm 0.00 in0.0 mm 1.22 in31.0 mm
10:55 PM 49.1°F9.5°C 47.7°F8.7°C 95% Calm Calm -- 29.70 in1005.8 mb 0.00 in0.0 mm 0.00 in0.0 mm 1.22 in31.0 mm
11:00 PM 49.2°F9.6°C 47.5°F8.6°C 94% Calm Calm -- 29.70 in1005.8 mb 0.00 in0.0 mm 0.00 in0.0 mm 1.22 in31.0 mm
11:05 PM 49.2°F9.6°C 47.5°F8.6°C 94% Calm Calm -- 29.70 in1005.8 mb 0.00 in0.0 mm 0.00 in0.0 mm 1.22 in31.0 mm
11:10 PM 49.2°F9.6°C 47.5°F8.6°C 94% Calm Calm -- 29.70 in1005.8 mb 0.00 in0.0 mm 0.00 in0.0 mm 1.22 in31.0 mm
11:15 PM 49.3°F9.6°C 47.9°F8.8°C 95% Calm Calm -- 29.70 in1005.8 mb 0.00 in0.0 mm 0.00 in0.0 mm 1.22 in31.0 mm
11:20 PM 49.3°F9.6°C 47.9°F8.8°C 95% Calm Calm -- 29.70 in1005.8 mb 0.00 in0.0 mm 0.00 in0.0 mm 1.22 in31.0 mm
11:25 PM 49.3°F9.6°C 47.9°F8.8°C 95% Calm Calm -- 29.70 in1005.8 mb 0.00 in0.0 mm 0.00 in0.0 mm 1.22 in31.0 mm
11:30 PM 49.5°F9.7°C 48.1°F8.9°C 95% Calm Calm -- 29.70 in1005.8 mb 0.00 in0.0 mm 0.00 in0.0 mm 1.22 in31.0 mm
11:35 PM 49.5°F9.7°C 48.1°F8.9°C 95% Calm Calm -- 29.70 in1005.8 mb 0.00 in0.0 mm 0.00 in0.0 mm 1.22 in31.0 mm
11:40 PM 49.5°F9.7°C 48.1°F8.9°C 95% Calm Calm -- 29.70 in1005.8 mb 0.00 in0.0 mm 0.00 in0.0 mm 1.22 in31.0 mm
11:45 PM 49.5°F9.7°C 48.1°F8.9°C 95% Calm Calm -- 29.70 in1005.8 mb 0.00 in0.0 mm 0.00 in0.0 mm 1.22 in31.0 mm
11:50 PM 49.6°F9.8°C 48.2°F9.0°C 95% Calm Calm -- 29.70 in1005.8 mb 0.00 in0.0 mm 0.00 in0.0 mm 1.22 in31.0 mm
11:55 PM 49.6°F9.8°C 48.2°F9.0°C 95% Calm Calm -- 29.70 in1005.8 mb 0.00 in0.0 mm 0.00 in0.0 mm 1.22 in31.0 mm